Time;durP1;ratioP1;P1;durP2;ratioP2;P2;SDS_P1;SDS_P2;PMS_P1;PMS_P2;Temp;Humidity;BMP_temperature;BMP_pressure;BME280_temperature;BME280_humidity;BME280_pressure;Samples;Min_cycle;Max_cycle;Signal;HPM_P1;HPM_P2
2021/09/27 00:00:55;;;;;;;10.65;6.90;;;;;;;14.43;89.22;97354.44;5003529;28;20073;-63
2021/09/27 00:03:22;;;;;;;7.53;6.00;;;;;;;13.92;89.20;97289.53;5003258;28;20127;-64
2021/09/27 00:05:50;;;;;;;10.60;6.65;;;;;;;14.11;89.14;97314.34;5001256;28;20049;-64
2021/09/27 00:08:18;;;;;;;9.10;6.72;;;;;;;13.78;89.04;97289.41;5003499;28;20451;-65
2021/09/27 00:10:52;;;;;;;9.63;6.85;;;;;;;13.99;90.70;97345.31;5001509;28;20042;-63
2021/09/27 00:13:23;;;;;;;8.63;5.63;;;;;;;14.07;91.20;97336.59;5003227;28;20492;-65
2021/09/27 00:15:52;;;;;;;7.78;6.43;;;;;;;13.78;90.35;97295.78;5003169;28;20057;-64
2021/09/27 00:18:20;;;;;;;8.40;5.85;;;;;;;13.77;90.05;97287.84;5003713;28;20057;-64
2021/09/27 00:20:53;;;;;;;7.03;5.53;;;;;;;14.16;90.16;97353.00;5003449;28;20058;-64
2021/09/27 00:23:20;;;;;;;8.57;6.07;;;;;;;14.11;90.41;97353.34;5002258;28;20065;-63
2021/09/27 00:25:48;;;;;;;10.15;5.85;;;;;;;13.74;90.65;97294.16;5003151;28;20517;-66
2021/09/27 00:28:16;;;;;;;9.02;6.35;;;;;;;14.08;90.03;97332.66;5002089;28;20056;-63
2021/09/27 00:30:43;;;;;;;8.23;5.43;;;;;;;14.27;89.96;97345.56;5001614;28;20050;-62
2021/09/27 00:33:10;;;;;;;7.45;5.40;;;;;;;14.00;87.97;97307.91;5003156;28;20046;-62
2021/09/27 00:35:38;;;;;;;6.72;5.45;;;;;;;14.25;87.53;97347.91;5003704;28;20061;-62
2021/09/27 00:38:07;;;;;;;8.38;5.40;;;;;;;14.21;88.15;97341.50;5003377;28;20057;-62
2021/09/27 00:40:37;;;;;;;8.73;5.30;;;;;;;13.84;88.86;97304.56;5001496;28;20065;-63
2021/09/27 00:43:05;;;;;;;9.23;5.25;;;;;;;13.79;88.97;97307.72;5002864;28;20497;-64
2021/09/27 00:45:38;;;;;;;7.05;5.57;;;;;;;14.01;88.99;97354.06;5002584;28;20054;-63
2021/09/27 00:48:06;;;;;;;9.38;6.30;;;;;;;13.73;88.37;97309.25;5001012;28;20062;-62
2021/09/27 00:50:38;;;;;;;8.63;5.90;;;;;;;14.04;88.80;97347.72;5002887;28;20058;-63
2021/09/27 00:53:10;;;;;;;6.82;5.57;;;;;;;14.02;88.63;97350.09;5002940;28;20056;-63
2021/09/27 00:55:37;;;;;;;9.45;6.28;;;;;;;13.36;89.27;97262.81;5001538;28;20049;-63
2021/09/27 00:58:04;;;;;;;10.57;6.00;;;;;;;13.93;89.33;97341.25;5001615;28;20053;-64
2021/09/27 01:00:31;;;;;;;8.82;6.03;;;;;;;13.86;90.11;97341.19;5002421;28;20054;-65
2021/09/27 01:02:58;;;;;;;9.13;6.07;;;;;;;13.85;89.93;97339.63;5002583;28;20091;-62
2021/09/27 01:05:25;;;;;;;11.65;5.93;;;;;;;13.85;89.67;97334.03;5002137;28;20564;-63
2021/09/27 01:08:07;;;;;;;7.53;5.93;;;;;;;13.85;89.57;97329.25;5001410;28;20054;-64
2021/09/27 01:11:07;;;;;;;9.05;6.63;;;;;;;13.33;90.16;97285.81;5000910;28;20060;-63
2021/09/27 01:13:48;;;;;;;8.20;6.18;;;;;;;13.79;90.19;97346.69;5004981;28;20061;-63
2021/09/27 01:16:27;;;;;;;10.07;6.65;;;;;;;13.78;90.63;97339.53;5002982;28;20045;-64
2021/09/27 01:19:09;;;;;;;11.88;6.68;;;;;;;13.86;90.34;97330.88;5002892;28;20115;-63
2021/09/27 01:22:00;;;;;;;11.23;6.55;;;;;;;13.83;90.97;97326.03;5002480;28;20094;-63
2021/09/27 01:24:29;;;;;;;10.80;5.97;;;;;;;13.78;91.84;97333.97;5002432;28;20062;-63
2021/09/27 01:27:17;;;;;;;9.27;7.13;;;;;;;13.85;91.41;97334.03;5001078;28;20062;-63
2021/09/27 01:30:15;;;;;;;7.57;5.68;;;;;;;13.78;91.86;97328.41;5000584;28;20158;-62
2021/09/27 01:32:56;;;;;;;9.88;6.40;;;;;;;13.83;91.72;97319.69;5002286;28;20588;-63
2021/09/27 01:36:00;;;;;;;8.80;6.00;;;;;;;13.84;90.19;97326.84;5001878;28;20056;-64
2021/09/27 01:38:30;;;;;;;8.15;6.18;;;;;;;13.75;90.97;97326.38;5005421;28;20060;-63
2021/09/27 01:41:03;;;;;;;10.52;6.07;;;;;;;13.65;91.59;97330.66;5021742;28;20049;-65
2021/09/27 01:43:42;;;;;;;7.72;6.30;;;;;;;13.13;91.16;97256.63;5011028;28;20061;-64
2021/09/27 01:46:37;;;;;;;7.88;5.95;;;;;;;13.61;90.38;97336.19;5000503;28;20436;-63
2021/09/27 01:49:07;;;;;;;12.98;6.18;;;;;;;13.47;90.38;97346.38;5008965;28;20079;-63
2021/09/27 01:52:06;;;;;;;9.18;6.72;;;;;;;13.32;91.27;97339.06;5002032;28;20532;-62
2021/09/27 01:54:42;;;;;;;7.70;5.88;;;;;;;13.10;92.04;97310.19;5000320;28;20738;-62
2021/09/27 01:57:19;;;;;;;10.90;6.63;;;;;;;13.11;92.91;97328.50;4999958;28;20049;-62
2021/09/27 02:00:01;;;;;;;9.07;6.57;;;;;;;13.20;93.17;97331.78;5002118;28;20057;-62
2021/09/27 02:02:46;;;;;;;8.88;6.55;;;;;;;13.21;94.39;97327.84;5000008;28;20064;-63
2021/09/27 02:05:39;;;;;;;8.20;6.25;;;;;;;13.16;95.95;97325.41;5001949;28;20057;-62
2021/09/27 02:08:31;;;;;;;9.83;7.43;;;;;;;13.22;95.94;97321.09;5000590;28;20512;-62
2021/09/27 02:11:14;;;;;;;9.15;6.15;;;;;;;12.93;95.87;97260.72;5000235;28;20444;-63
2021/09/27 02:13:41;;;;;;;9.67;6.90;;;;;;;13.39;94.60;97316.88;5001583;28;20049;-62
2021/09/27 02:16:16;;;;;;;8.43;7.35;;;;;;;12.81;96.65;97272.09;5001672;28;20050;-64
2021/09/27 02:18:54;;;;;;;9.68;6.72;;;;;;;13.24;96.64;97318.72;5001427;28;20132;-63
2021/09/27 02:21:27;;;;;;;13.38;7.22;;;;;;;13.12;95.27;97268.91;5001197;28;20513;-63
2021/09/27 02:23:55;;;;;;;11.00;6.55;;;;;;;13.27;96.49;97309.63;5001624;28;20500;-63
2021/09/27 02:26:22;;;;;;;9.75;7.47;;;;;;;13.23;96.57;97307.97;5001409;28;20485;-65
2021/09/27 02:28:49;;;;;;;8.98;7.32;;;;;;;13.32;95.73;97312.06;4999833;28;20129;-64
2021/09/27 02:31:45;;;;;;;8.18;6.82;;;;;;;13.26;96.12;97319.13;5000161;28;20046;-62
2021/09/27 02:34:15;;;;;;;9.73;7.50;;;;;;;13.31;95.31;97321.56;5001137;28;20058;-63
2021/09/27 02:36:49;;;;;;;11.40;7.22;;;;;;;13.35;93.77;97327.19;4999774;28;20573;-63
2021/09/27 02:39:25;;;;;;;10.52;6.88;;;;;;;13.19;91.85;97319.06;5001300;28;20080;-64
2021/09/27 02:42:17;;;;;;;9.68;7.05;;;;;;;12.95;91.84;97305.63;4999447;28;20501;-62
2021/09/27 02:44:45;;;;;;;9.85;6.55;;;;;;;12.85;93.27;97314.63;4999325;28;20058;-62
2021/09/27 02:47:18;;;;;;;13.95;7.40;;;;;;;12.82;93.29;97329.28;5001599;28;20066;-62
2021/09/27 02:49:45;;;;;;;12.20;7.55;;;;;;;12.46;92.66;97260.53;4999950;28;20058;-65
2021/09/27 02:52:16;;;;;;;9.77;6.78;;;;;;;12.52;93.20;97272.91;5001179;28;20057;-65
2021/09/27 02:54:51;;;;;;;10.20;7.20;;;;;;;12.47;93.96;97276.03;4999554;28;20064;-64
2021/09/27 02:57:46;;;;;;;15.85;7.45;;;;;;;12.83;95.19;97311.47;5000829;28;20054;-63
2021/09/27 03:00:32;;;;;;;8.75;6.72;;;;;;;12.77;97.22;97312.94;5001166;28;20568;-62
2021/09/27 03:03:04;;;;;;;9.18;7.28;;;;;;;12.73;98.25;97312.13;5001013;28;20057;-64
2021/09/27 03:05:54;;;;;;;11.43;7.13;;;;;;;12.72;97.74;97304.16;5001216;28;20050;-62
2021/09/27 03:08:26;;;;;;;13.65;7.18;;;;;;;12.74;98.02;97304.59;5001181;28;20061;-62
2021/09/27 03:11:06;;;;;;;13.57;7.50;;;;;;;12.88;97.06;97313.88;5002921;28;20054;-65
2021/09/27 03:13:41;;;;;;;12.80;7.30;;;;;;;12.83;97.25;97311.47;5004818;28;20061;-62
2021/09/27 03:16:36;;;;;;;12.45;8.35;;;;;;;12.93;96.75;97307.97;5004306;28;20061;-62
2021/09/27 03:19:27;;;;;;;11.40;7.53;;;;;;;12.86;97.00;97310.69;5002824;28;20064;-62
2021/09/27 03:22:10;;;;;;;8.15;7.30;;;;;;;12.74;97.97;97302.59;5003362;28;20065;-64
2021/09/27 03:25:05;;;;;;;14.88;8.35;;;;;;;12.39;98.24;97257.69;5002990;28;20054;-62
2021/09/27 03:27:56;;;;;;;14.82;7.68;;;;;;;12.83;96.63;97317.00;5002809;28;20069;-63
2021/09/27 03:30:26;;;;;;;12.82;8.15;;;;;;;12.82;96.51;97309.84;5004494;28;20058;-62
2021/09/27 03:33:15;;;;;;;11.27;8.25;;;;;;;12.85;96.54;97303.53;5002541;28;20054;-65
2021/09/27 03:35:45;;;;;;;12.95;8.70;;;;;;;12.92;96.40;97308.38;5002551;28;20054;-62
2021/09/27 03:38:31;;;;;;;20.92;11.35;;;;;;;12.80;97.41;97306.66;5002663;28;20053;-63
2021/09/27 03:41:27;;;;;;;13.63;9.27;;;;;;;12.91;96.46;97307.59;5004311;28;20064;-63
2021/09/27 03:44:29;;;;;;;17.20;9.48;;;;;;;12.95;96.00;97308.41;5002828;28;20064;-62
2021/09/27 03:47:18;;;;;;;14.65;8.30;;;;;;;12.97;95.77;97300.50;5002990;28;20520;-62
2021/09/27 03:50:11;;;;;;;12.38;7.95;;;;;;;13.02;95.27;97300.19;5002252;28;20052;-65
2021/09/27 03:53:06;;;;;;;11.57;8.48;;;;;;;12.89;94.96;97296.03;5003836;28;20062;-63
2021/09/27 03:55:42;;;;;;;13.23;8.18;;;;;;;12.70;95.55;97312.88;5003160;28;20572;-61
2021/09/27 03:58:17;;;;;;;12.25;8.13;;;;;;;12.55;96.22;97305.50;5003712;28;20103;-62
2021/09/27 04:00:50;;;;;;;15.45;8.65;;;;;;;12.45;96.26;97311.75;5003479;28;20054;-64
2021/09/27 04:03:51;;;;;;;12.77;8.55;;;;;;;12.54;95.86;97301.13;5003684;28;20140;-63
2021/09/27 04:06:47;;;;;;;12.20;8.13;;;;;;;12.49;96.53;97309.81;5003327;28;20145;-61
2021/09/27 04:09:26;;;;;;;11.80;7.75;;;;;;;12.52;97.68;97305.50;5003359;28;20500;-63
2021/09/27 04:11:56;;;;;;;17.80;8.68;;;;;;;12.54;94.94;97309.47;5003081;28;20158;-62
2021/09/27 04:15:08;;;;;;;12.45;7.85;;;;;;;12.40;94.21;97314.84;5001334;28;20050;-62
2021/09/27 04:18:14;;;;;;;12.00;7.78;;;;;;;12.37;93.86;97315.59;5003487;28;20437;-62
2021/09/27 04:21:06;;;;;;;19.15;9.68;;;;;;;12.34;94.30;97316.34;5011576;28;20519;-64
2021/09/27 04:24:04;;;;;;;13.60;9.20;;;;;;;12.28;93.57;97312.28;5003134;28;20046;-64
2021/09/27 04:26:53;;;;;;;21.20;10.95;;;;;;;12.27;93.61;97318.19;5001359;28;20053;-64
2021/09/27 04:29:57;;;;;;;22.52;12.10;;;;;;;12.26;93.25;97309.09;5003300;28;20455;-65
2021/09/27 04:32:30;;;;;;;23.23;11.95;;;;;;;12.21;93.83;97314.97;5002834;28;20057;-65
2021/09/27 04:35:06;;;;;;;13.57;8.52;;;;;;;11.61;94.05;97261.25;5003514;28;20046;-65
2021/09/27 04:37:33;;;;;;;17.33;8.40;;;;;;;12.04;94.92;97329.38;5003515;28;20050;-65
2021/09/27 04:40:01;;;;;;;13.50;8.00;;;;;;;11.92;93.94;97310.13;5001643;28;20141;-64
2021/09/27 04:42:34;;;;;;;14.50;9.32;;;;;;;12.10;94.13;97339.81;5001779;28;20052;-63
2021/09/27 04:45:32;;;;;;;14.45;8.77;;;;;;;12.13;94.93;97338.25;5002526;28;20050;-62
2021/09/27 04:47:59;;;;;;;18.50;9.75;;;;;;;12.10;96.14;97338.97;5017512;28;20090;-63
2021/09/27 04:50:54;;;;;;;19.15;8.90;;;;;;;12.15;96.22;97330.34;5001829;28;20053;-62
2021/09/27 04:53:34;;;;;;;20.55;11.80;;;;;;;12.37;95.04;97326.69;5003273;28;20061;-62
2021/09/27 04:56:11;;;;;;;14.60;8.23;;;;;;;12.41;94.21;97333.09;5001436;28;20062;-62
2021/09/27 04:59:09;;;;;;;16.40;9.43;;;;;;;12.54;93.35;97337.25;5017651;28;20129;-63
2021/09/27 05:02:04;;;;;;;13.13;8.30;;;;;;;12.55;92.57;97338.84;5002395;28;20540;-62
2021/09/27 05:04:53;;;;;;;17.77;9.07;;;;;;;12.64;92.94;97342.19;5001283;28;20062;-62
2021/09/27 05:07:30;;;;;;;15.60;7.90;;;;;;;12.50;91.81;97297.53;5002633;28;20077;-62
2021/09/27 05:10:32;;;;;;;16.90;8.95;;;;;;;12.97;92.13;97333.88;5017992;28;20085;-62
2021/09/27 05:13:12;;;;;;;15.43;8.23;;;;;;;13.17;91.37;97340.88;5002276;28;20053;-61
2021/09/27 05:15:45;;;;;;;14.20;8.50;;;;;;;13.37;90.61;97347.88;5002442;28;20053;-61
2021/09/27 05:18:24;;;;;;;15.75;8.90;;;;;;;13.55;89.80;97337.72;5002546;28;20058;-61
2021/09/27 05:21:16;;;;;;;19.88;10.35;;;;;;;13.77;88.12;97349.88;5001606;28;20060;-61
2021/09/27 05:24:11;;;;;;;12.23;8.23;;;;;;;13.74;87.66;97322.00;5000448;28;20065;-62
2021/09/27 05:26:58;;;;;;;14.00;8.25;;;;;;;13.99;87.86;97356.44;5002134;28;20061;-64
2021/09/27 05:29:28;;;;;;;16.40;9.38;;;;;;;14.19;86.39;97344.69;5002394;28;20054;-62
2021/09/27 05:32:16;;;;;;;15.00;10.45;;;;;;;14.27;85.84;97356.69;5001277;28;20057;-62
2021/09/27 05:34:58;;;;;;;13.68;10.40;;;;;;;14.40;85.70;97355.22;5002300;28;20060;-62
2021/09/27 05:37:52;;;;;;;17.48;9.85;;;;;;;14.55;85.23;97363.28;5001230;28;20050;-62
2021/09/27 05:40:19;;;;;;;;;;;;;;;14.81;82.99;97353.88;5001009;28;20075;-62
2021/09/27 05:43:21;;;;;;;19.23;9.45;;;;;;;14.91;83.36;97350.31;5000546;28;19968;-62
2021/09/27 05:46:03;;;;;;;17.10;9.50;;;;;;;15.10;83.04;97336.88;5001622;28;20213;-62
2021/09/27 05:48:48;;;;;;;13.43;8.18;;;;;;;15.32;82.36;97332.16;4998974;28;20060;-59
2021/09/27 05:51:31;;;;;;;16.55;9.85;;;;;;;13.47;82.49;97001.31;4993269;28;20049;-62
2021/09/27 05:54:27;;;;;;;10.52;7.50;;;;;;;15.63;82.58;97353.81;4990412;28;20042;-64
2021/09/27 05:56:56;;;;;;;11.32;8.35;;;;;;;15.73;81.76;97327.13;4993007;28;20057;-65
2021/09/27 05:59:51;;;;;;;12.20;8.52;;;;;;;15.81;81.29;97328.69;4993161;28;20054;-66
2021/09/27 06:02:46;;;;;;;13.07;7.78;;;;;;;16.09;80.05;97329.50;4996118;28;20046;-61
2021/09/27 06:05:25;;;;;;;11.77;8.15;;;;;;;15.65;79.43;97252.91;4991491;28;20546;-63
2021/09/27 06:08:23;;;;;;;12.80;7.68;;;;;;;16.31;79.67;97335.91;4996559;28;20057;-62
2021/09/27 06:11:07;;;;;;;9.10;7.82;;;;;;;16.64;77.88;97339.06;4989829;28;20054;-65
2021/09/27 06:13:40;;;;;;;11.50;7.88;;;;;;;15.79;76.66;97174.69;4995612;28;20057;-60
2021/09/27 06:16:27;;;;;;;9.90;7.18;;;;;;;16.61;74.77;97272.75;5000767;28;20065;-61
2021/09/27 06:19:06;;;;;;;13.50;7.95;;;;;;;16.16;75.55;97200.16;4995978;28;20054;-61
2021/09/27 06:21:53;;;;;;;11.52;7.53;;;;;;;17.12;75.14;97324.56;4997320;28;20517;-60
2021/09/27 06:24:20;;;;;;;12.55;8.05;;;;;;;17.44;73.72;97330.78;4994132;28;20056;-63
2021/09/27 06:26:55;;;;;;;10.68;8.82;;;;;;;17.16;72.82;97298.16;5001085;28;20054;-68
2021/09/27 06:29:32;;;;;;;12.77;9.00;;;;;;;17.44;72.43;97313.97;4988565;28;20058;-66
2021/09/27 06:32:06;;;;;;;13.82;9.63;;;;;;;17.87;71.67;97332.16;4988861;28;20538;-61
2021/09/27 06:34:47;;;;;;;13.35;9.70;;;;;;;18.06;70.95;97328.81;5001249;28;20073;-61
2021/09/27 06:37:18;;;;;;;15.50;10.23;;;;;;;17.21;69.92;97177.34;5001493;28;20065;-65
2021/09/27 06:39:46;;;;;;;19.85;10.60;;;;;;;18.47;69.28;97329.69;4987110;28;20058;-62
2021/09/27 06:42:13;;;;;;;12.35;8.90;;;;;;;18.70;68.18;97323.47;4985978;28;20069;-60
2021/09/27 06:44:43;;;;;;;13.80;9.50;;;;;;;17.97;68.15;97179.94;5000584;28;20057;-61
2021/09/27 06:47:11;;;;;;;12.90;8.80;;;;;;;19.12;67.10;97323.00;4997132;28;20057;-62
2021/09/27 06:49:38;;;;;;;13.75;8.68;;;;;;;19.28;65.11;97321.19;4980398;28;20100;-62
2021/09/27 06:52:05;;;;;;;13.68;9.20;;;;;;;19.37;66.51;97324.31;4981264;28;20560;-64
2021/09/27 06:54:32;;;;;;;13.00;8.93;;;;;;;18.79;66.44;97254.41;5039856;28;20050;-64
2021/09/27 06:56:59;;;;;;;9.70;7.32;;;;;;;18.76;67.32;97324.63;5015690;28;20049;-65
2021/09/27 06:59:26;;;;;;;11.57;8.65;;;;;;;17.13;68.10;97051.81;5000731;28;21023;-62
2021/09/27 07:02:13;;;;;;;10.10;7.63;;;;;;;19.24;67.31;97331.66;4998837;28;20436;-63
2021/09/27 07:04:40;;;;;;;14.63;9.00;;;;;;;18.18;66.25;97174.09;4998638;28;20114;-60
2021/09/27 07:07:06;;;;;;;13.95;9.50;;;;;;;18.58;66.24;97215.34;4992187;28;20050;-61
2021/09/27 07:09:35;;;;;;;11.52;8.48;;;;;;;19.69;65.44;97345.56;4980268;28;20129;-62
2021/09/27 07:12:02;;;;;;;12.40;9.50;;;;;;;19.81;64.29;97328.09;4980739;28;20050;-62
2021/09/27 07:14:29;;;;;;;13.20;9.52;;;;;;;20.07;64.19;97327.31;4979090;28;20072;-61
2021/09/27 07:16:56;;;;;;;11.68;7.25;;;;;;;19.82;64.80;97333.34;5080157;28;20052;-62
2021/09/27 07:19:23;;;;;;;9.48;7.00;;;;;;;19.44;64.95;97279.25;5000747;28;20061;-64
2021/09/27 07:21:49;;;;;;;7.95;7.07;;;;;;;19.14;64.39;97186.53;5000413;28;20058;-62
2021/09/27 07:24:16;;;;;;;9.13;6.90;;;;;;;20.22;64.06;97334.34;5015568;28;20603;-60
2021/09/27 07:26:43;;;;;;;11.65;7.80;;;;;;;20.01;65.34;97331.84;4998686;28;20057;-63
2021/09/27 07:29:09;;;;;;;10.63;7.07;;;;;;;19.79;67.02;97328.53;5015199;28;20060;-63
2021/09/27 07:31:37;;;;;;;12.90;7.00;;;;;;;20.18;65.39;97330.78;4998020;28;20058;-63
2021/09/27 07:34:05;;;;;;;13.02;6.85;;;;;;;20.16;65.89;97321.97;4998460;28;20097;-63
2021/09/27 07:36:33;;;;;;;8.90;6.03;;;;;;;20.30;65.21;97318.94;5008710;28;20054;-63
2021/09/27 07:39:00;;;;;;;13.25;6.97;;;;;;;19.96;67.98;97321.06;4996901;28;20054;-64
2021/09/27 07:41:29;;;;;;;7.95;5.72;;;;;;;19.77;68.96;97325.38;4994420;28;20043;-63
2021/09/27 07:43:56;;;;;;;10.95;7.47;;;;;;;20.01;67.90;97289.66;4993739;28;20075;-61
2021/09/27 07:46:23;;;;;;;9.45;5.93;;;;;;;20.49;66.22;97315.38;5004878;28;20050;-63
2021/09/27 07:48:50;;;;;;;10.25;6.40;;;;;;;20.29;65.99;97244.19;5000744;28;20108;-62
2021/09/27 07:51:19;;;;;;;13.85;6.63;;;;;;;21.16;63.18;97325.41;4988777;28;20146;-64
2021/09/27 07:53:46;;;;;;;10.90;5.95;;;;;;;21.45;62.98;97327.22;5001686;28;20468;-61
2021/09/27 07:56:12;;;;;;;8.18;6.97;;;;;;;20.76;64.40;97311.28;4983548;28;20070;-63
2021/09/27 07:58:39;;;;;;;10.35;5.68;;;;;;;20.83;63.50;97324.44;4997035;28;20144;-61
2021/09/27 08:01:06;;;;;;;9.25;6.78;;;;;;;21.22;62.75;97329.31;5038315;28;20058;-61
2021/09/27 08:03:33;;;;;;;10.45;5.82;;;;;;;20.71;61.96;97221.66;4997334;28;20572;-64
2021/09/27 08:06:00;;;;;;;8.13;6.55;;;;;;;21.25;64.01;97320.78;4989948;28;20066;-61
2021/09/27 08:08:26;;;;;;;236.07;128.35;;;;;;;21.42;62.22;97268.13;5003577;28;20050;-64
2021/09/27 08:10:53;;;;;;;10.15;6.53;;;;;;;21.55;60.87;97269.81;4994212;28;20492;-63
2021/09/27 08:13:20;;;;;;;8.35;5.75;;;;;;;21.27;60.19;97276.06;4983738;28;20695;-65
2021/09/27 08:15:49;;;;;;;10.40;7.32;;;;;;;21.28;60.96;97274.84;4991811;28;20122;-64
2021/09/27 08:18:18;;;;;;;6.10;5.50;;;;;;;21.46;59.05;97238.63;4988418;28;20135;-63
2021/09/27 08:20:50;;;;;;;7.70;5.72;;;;;;;21.73;58.56;97309.69;4996401;28;20058;-59
2021/09/27 08:23:17;;;;;;;10.23;6.82;;;;;;;20.75;60.27;97211.13;5022359;28;20054;-62
2021/09/27 08:25:44;;;;;;;12.50;7.53;;;;;;;21.87;58.84;97303.75;5002007;28;20152;-62
2021/09/27 08:28:16;;;;;;;6.72;6.03;;;;;;;21.45;59.76;97293.38;4998544;28;20051;-62
2021/09/27 08:30:49;;;;;;;9.20;7.20;;;;;;;21.33;60.38;97254.59;4984388;28;20135;-64
2021/09/27 08:33:19;;;;;;;8.60;7.57;;;;;;;21.81;60.96;97305.53;4997307;28;20131;-64
2021/09/27 08:35:47;;;;;;;10.02;6.75;;;;;;;21.75;60.08;97267.75;4982698;28;20046;-65
2021/09/27 08:38:16;;;;;;;6.95;6.07;;;;;;;22.02;59.56;97290.88;4988912;28;20047;-61
2021/09/27 08:40:58;;;;;;;9.50;7.50;;;;;;;22.23;58.34;97290.38;4992252;28;20059;-65
2021/09/27 08:43:54;;;;;;;9.18;6.10;;;;;;;22.53;56.46;97285.63;4997908;28;20104;-65
2021/09/27 08:46:29;;;;;;;16.17;8.77;;;;;;;22.32;57.82;97259.50;4998374;28;20363;-60
2021/09/27 08:49:02;;;;;;;9.45;6.32;;;;;;;22.71;55.71;97280.31;4992844;28;20478;-63
2021/09/27 08:51:32;;;;;;;8.55;6.18;;;;;;;22.97;55.69;97287.66;4994855;28;20050;-62
2021/09/27 08:53:59;;;;;;;9.90;5.85;;;;;;;22.84;55.78;97275.50;4998028;28;20229;-62
2021/09/27 08:56:39;;;;;;;9.63;5.90;;;;;;;22.48;56.18;97276.44;5002082;28;20455;-62
2021/09/27 08:59:30;;;;;;;9.38;6.22;;;;;;;22.39;57.67;97273.44;5000172;28;20049;-61
2021/09/27 09:02:19;;;;;;;9.60;6.28;;;;;;;22.43;57.08;97267.69;4990995;28;20054;-61
2021/09/27 09:05:27;;;;;;;10.85;6.18;;;;;;;22.77;55.49;97275.69;4999433;28;20089;-61
2021/09/27 09:08:19;;;;;;;10.43;6.20;;;;;;;23.07;54.62;97269.59;5016658;28;20172;-63
2021/09/27 09:11:06;;;;;;;8.68;6.47;;;;;;;23.28;53.67;97266.19;4981406;28;20062;-63
2021/09/27 09:13:45;;;;;;;9.50;7.57;;;;;;;23.57;54.05;97261.25;4982713;28;20448;-65
2021/09/27 09:16:16;;;;;;;8.82;6.75;;;;;;;23.74;52.18;97271.25;4982476;28;20504;-62
2021/09/27 09:18:47;;;;;;;8.40;6.30;;;;;;;23.70;51.34;97219.63;4981000;28;20168;-60
2021/09/27 09:21:36;;;;;;;7.95;5.97;;;;;;;24.19;50.28;97269.00;4981258;28;20425;-62
2021/09/27 09:24:11;;;;;;;9.40;6.45;;;;;;;23.91;50.98;97190.66;4981165;28;20093;-62
2021/09/27 09:26:47;;;;;;;9.43;6.60;;;;;;;24.52;49.87;97258.97;4987554;28;20679;-63
2021/09/27 09:29:21;;;;;;;11.15;6.47;;;;;;;24.34;50.31;97236.16;4983657;28;20072;-63
2021/09/27 09:31:52;;;;;;;8.82;6.22;;;;;;;23.62;51.84;97258.69;4988945;28;20119;-62
2021/09/27 09:34:19;;;;;;;10.82;5.78;;;;;;;24.02;50.72;97253.41;4995423;28;20111;-63
2021/09/27 09:36:49;;;;;;;10.45;6.50;;;;;;;24.23;50.38;97224.38;5000073;28;20399;-62
2021/09/27 09:39:27;;;;;;;6.38;5.05;;;;;;;24.06;50.18;97242.75;5011496;28;20144;-63
2021/09/27 09:41:58;;;;;;;7.88;5.25;;;;;;;23.26;52.56;97212.13;4985198;28;20146;-62
2021/09/27 09:44:27;;;;;;;9.57;5.90;;;;;;;23.80;52.24;97243.97;4985034;28;20046;-63
2021/09/27 09:47:09;;;;;;;14.43;6.45;;;;;;;24.20;50.61;97241.50;4990793;28;20516;-65
2021/09/27 09:50:08;;;;;;;7.30;5.15;;;;;;;24.08;50.80;97240.25;4981518;28;20520;-64
2021/09/27 09:52:44;;;;;;;6.70;6.07;;;;;;;22.66;50.48;96987.13;5002961;28;20057;-62
2021/09/27 09:55:36;;;;;;;8.50;6.00;;;;;;;24.55;50.71;97238.22;5014792;28;20050;-64
2021/09/27 09:58:33;;;;;;;9.82;6.22;;;;;;;24.62;49.34;97184.16;4991362;28;20057;-63
2021/09/27 10:01:12;;;;;;;7.85;6.13;;;;;;;24.84;50.04;97230.34;4994537;28;20053;-63
2021/09/27 10:03:43;;;;;;;12.82;6.30;;;;;;;25.28;49.58;97214.91;4988888;28;20304;-60
2021/09/27 10:06:23;;;;;;;6.88;6.13;;;;;;;24.78;49.29;97191.72;4996376;28;20053;-61
2021/09/27 10:08:58;;;;;;;10.07;6.35;;;;;;;25.05;49.30;97212.53;4991409;28;20176;-64
2021/09/27 10:11:40;;;;;;;10.43;6.53;;;;;;;25.57;48.13;97208.16;4984383;28;20558;-61
2021/09/27 10:14:23;;;;;;;7.95;5.93;;;;;;;25.01;48.75;97211.09;4986061;28;20062;-61
2021/09/27 10:17:07;;;;;;;11.43;7.43;;;;;;;25.18;49.91;97199.06;4984859;28;20608;-64
2021/09/27 10:19:40;;;;;;;11.57;7.10;;;;;;;25.67;48.52;97187.09;5016795;28;20129;-62
2021/09/27 10:22:12;;;;;;;;;;;;;;;25.15;48.65;97205.69;4972945;28;20053;-65
2021/09/27 10:24:47;;;;;;;6.15;5.55;;;;;;;24.33;49.74;97121.28;4970024;28;20301;-62
2021/09/27 10:27:33;;;;;;;8.52;6.68;;;;;;;24.47;50.36;97166.06;4981067;28;20058;-62
2021/09/27 10:30:09;;;;;;;7.75;6.32;;;;;;;24.63;49.63;97150.94;4980075;28;20661;-60
2021/09/27 10:32:47;;;;;;;8.52;6.25;;;;;;;25.52;48.71;97184.00;4980678;28;20060;-62
2021/09/27 10:35:38;;;;;;;9.40;6.60;;;;;;;25.39;49.19;97185.38;4981148;28;20061;-62
2021/09/27 10:38:11;;;;;;;7.10;6.35;;;;;;;25.37;49.00;97187.88;4980897;28;20493;-66
2021/09/27 10:40:44;;;;;;;;;;;;;;;25.11;49.49;97182.34;4981300;28;20061;-64
2021/09/27 10:43:15;;;;;;;7.57;6.40;;;;;;;24.63;51.03;97185.72;4980321;28;19926;-61
2021/09/27 10:45:47;;;;;;;9.15;6.03;;;;;;;24.67;50.85;97185.63;4980126;28;20058;-64
2021/09/27 10:48:16;;;;;;;10.07;6.47;;;;;;;25.16;50.31;97173.25;4981220;28;20058;-63
2021/09/27 10:50:51;;;;;;;13.77;6.57;;;;;;;24.79;49.31;97120.41;4979891;28;20129;-63
2021/09/27 10:53:44;;;;;;;19.15;7.55;;;;;;;25.18;49.73;97164.28;4981314;28;20046;-61
2021/09/27 10:56:14;;;;;;;7.45;5.70;;;;;;;25.28;49.10;97158.19;4977303;28;20520;-63
2021/09/27 10:58:51;;;;;;;8.23;6.82;;;;;;;25.62;49.31;97153.63;4980087;28;20046;-65
2021/09/27 11:01:36;;;;;;;8.38;6.07;;;;;;;26.03;47.29;97158.84;4979425;28;20061;-63
2021/09/27 11:04:05;;;;;;;5.90;5.47;;;;;;;26.41;47.44;97153.53;4981277;28;20122;-65
2021/09/27 11:06:34;;;;;;;10.55;6.20;;;;;;;25.88;47.24;97144.41;4978147;28;20427;-62
2021/09/27 11:09:17;;;;;;;10.02;6.70;;;;;;;26.06;47.84;97149.38;4980546;28;20057;-65
2021/09/27 11:11:56;;;;;;;11.80;6.20;;;;;;;26.33;46.51;97146.59;4980596;28;20054;-64
2021/09/27 11:14:28;;;;;;;8.88;6.20;;;;;;;25.73;47.83;97136.97;4981242;28;20139;-61
2021/09/27 11:17:30;;;;;;;10.98;6.88;;;;;;;24.77;46.84;96950.03;4980060;28;20054;-63
2021/09/27 11:20:16;;;;;;;7.68;6.15;;;;;;;25.10;48.35;97049.56;4974699;28;20487;-64
2021/09/27 11:22:54;;;;;;;10.55;7.95;;;;;;;25.65;48.93;97124.31;4978653;28;20090;-61
2021/09/27 11:25:20;;;;;;;11.35;6.90;;;;;;;25.89;47.63;97128.94;5009828;28;20042;-66
2021/09/27 11:28:08;;;;;;;6.75;5.85;;;;;;;26.15;46.65;97118.16;4978294;28;20077;-64
2021/09/27 11:31:07;;;;;;;7.25;6.25;;;;;;;26.64;47.25;97115.97;4971246;28;20050;-64
2021/09/27 11:33:34;;;;;;;11.18;6.57;;;;;;;26.71;45.81;97110.00;4962309;28;20506;-60
2021/09/27 11:36:21;;;;;;;7.82;5.80;;;;;;;27.07;46.08;97115.59;4971627;28;20050;-65
2021/09/27 11:39:15;;;;;;;5.93;5.43;;;;;;;27.29;43.85;97082.06;4970128;28;20509;-60
2021/09/27 11:42:14;;;;;;;7.78;5.50;;;;;;;27.83;43.43;97101.72;4978974;28;20056;-65
2021/09/27 11:45:15;;;;;;;6.75;5.93;;;;;;;27.98;42.24;97094.06;4979994;28;20468;-66
2021/09/27 11:47:42;;;;;;;7.00;5.55;;;;;;;27.97;43.00;97091.69;4994187;28;20065;-60
2021/09/27 11:50:33;;;;;;;8.13;6.15;;;;;;;28.17;42.16;97091.09;4982139;28;20568;-65
2021/09/27 11:53:32;;;;;;;11.50;5.97;;;;;;;28.29;42.03;97085.16;4979378;28;20516;-58
2021/09/27 11:56:21;;;;;;;8.88;6.57;;;;;;;27.93;41.56;97085.41;4992904;28;20069;-66
2021/09/27 11:58:51;;;;;;;7.50;5.63;;;;;;;26.85;43.33;97080.91;4974850;28;20134;-64
2021/09/27 12:01:33;;;;;;;6.65;6.05;;;;;;;26.96;44.92;97084.03;4981808;28;20513;-63
2021/09/27 12:04:23;;;;;;;8.77;7.03;;;;;;;26.62;45.34;97081.53;4979096;28;20478;-69
2021/09/27 12:06:55;;;;;;;6.00;5.50;;;;;;;26.94;43.69;97077.22;4982657;28;20064;-61
2021/09/27 12:09:37;;;;;;;7.93;6.30;;;;;;;26.82;44.97;97073.34;5019489;28;20414;-64
2021/09/27 12:12:06;;;;;;;7.55;6.07;;;;;;;27.26;44.66;97068.78;4982587;28;20088;-60
2021/09/27 12:14:42;;;;;;;11.13;6.00;;;;;;;27.65;43.62;97076.19;4982384;28;20062;-63
2021/09/27 12:17:15;;;;;;;9.68;6.85;;;;;;;26.53;44.46;96950.81;4983540;28;20251;-63
2021/09/27 12:19:51;;;;;;;7.50;6.50;;;;;;;26.83;44.32;97066.38;4983926;28;20072;-63